createdAt,value
2022-10-04T00:01:54.728Z,1.00
2022-10-04T00:04:29.263Z,1.70
2022-10-04T00:07:04.242Z,0.80
2022-10-04T00:09:44.137Z,0.80
2022-10-04T00:12:23.413Z,0.87
2022-10-04T00:14:58.893Z,0.83
2022-10-04T00:17:31.685Z,0.80
2022-10-04T00:20:00.941Z,1.43
2022-10-04T00:22:31.416Z,0.80
2022-10-04T00:25:19.263Z,0.90
2022-10-04T00:28:44.637Z,0.70
2022-10-04T00:31:24.655Z,1.13
2022-10-04T00:33:57.115Z,1.10
2022-10-04T00:36:55.172Z,0.97
2022-10-04T00:39:43.999Z,0.80
2022-10-04T00:42:39.174Z,0.70
2022-10-04T00:45:23.957Z,0.90
2022-10-04T00:48:31.601Z,0.97
2022-10-04T00:51:11.939Z,1.10
2022-10-04T00:53:53.519Z,0.90
2022-10-04T00:56:33.877Z,0.90
2022-10-04T00:59:30.345Z,1.13
2022-10-04T01:02:06.100Z,1.10
2022-10-04T01:04:47.501Z,0.90
2022-10-04T01:07:23.836Z,1.10
2022-10-04T01:09:57.492Z,0.90
2022-10-04T01:12:42.549Z,1.07
2022-10-04T01:15:18.790Z,1.33
2022-10-04T01:18:11.719Z,0.90
2022-10-04T01:20:54.347Z,2.03
2022-10-04T01:23:52.510Z,1.30
2022-10-04T01:26:43.317Z,0.87
2022-10-04T01:29:17.240Z,1.13
2022-10-04T01:31:49.881Z,1.30
2022-10-04T01:34:22.166Z,0.97
2022-10-04T01:36:53.607Z,1.07
2022-10-04T01:39:27.347Z,1.00
2022-10-04T01:42:06.038Z,1.00
2022-10-04T01:44:46.937Z,1.03
2022-10-04T01:47:22.135Z,1.20
2022-10-04T01:49:55.415Z,0.93
2022-10-04T01:52:32.776Z,0.80
2022-10-04T01:55:10.249Z,1.03
2022-10-04T01:57:48.630Z,1.30
2022-10-04T02:00:18.491Z,0.87
2022-10-04T02:02:54.592Z,0.80
2022-10-04T02:05:32.055Z,1.70
2022-10-04T02:08:07.844Z,1.27
2022-10-04T02:10:43.509Z,1.20
2022-10-04T02:13:18.533Z,1.00
2022-10-04T02:15:48.897Z,0.80
2022-10-04T02:18:21.596Z,0.90
2022-10-04T02:20:52.506Z,1.20
2022-10-04T02:23:23.965Z,1.07
2022-10-04T02:25:54.505Z,1.57
2022-10-04T02:28:23.126Z,1.00
2022-10-04T02:31:11.914Z,0.93
2022-10-04T02:33:43.543Z,1.30
2022-10-04T02:36:13.859Z,0.97
2022-10-04T02:38:52.621Z,1.10
2022-10-04T02:41:31.717Z,0.87
2022-10-04T02:44:12.428Z,0.90
2022-10-04T02:46:52.592Z,1.40
2022-10-04T02:49:34.493Z,1.20
2022-10-04T02:52:08.466Z,1.00
2022-10-04T02:54:45.474Z,1.30
2022-10-04T02:57:22.161Z,0.90
2022-10-04T02:59:52.537Z,1.27
2022-10-04T03:02:30.491Z,0.87
2022-10-04T03:05:06.942Z,1.30
2022-10-04T03:07:37.825Z,1.10
2022-10-04T03:10:12.373Z,1.40
2022-10-04T03:12:43.748Z,0.97
2022-10-04T03:15:13.911Z,1.30
2022-10-04T03:17:44.757Z,0.90
2022-10-04T03:20:21.082Z,1.20
2022-10-04T03:22:55.486Z,1.90
2022-10-04T03:25:30.204Z,1.30
2022-10-04T03:28:03.751Z,1.10
2022-10-04T03:30:32.831Z,1.27
2022-10-04T03:33:01.644Z,1.20
2022-10-04T03:35:35.562Z,1.57
2022-10-04T03:38:12.410Z,1.70
2022-10-04T03:40:49.944Z,1.23
2022-10-04T03:43:26.078Z,1.53
2022-10-04T03:45:58.378Z,1.20
2022-10-04T03:48:33.078Z,1.47
2022-10-04T03:51:04.321Z,1.13
2022-10-04T03:53:42.977Z,1.43
2022-10-04T03:56:16.811Z,1.00
2022-10-04T03:58:48.235Z,1.80
2022-10-04T04:01:38.675Z,1.60
2022-10-04T04:04:22.096Z,1.30
2022-10-04T04:07:02.391Z,1.23
2022-10-04T04:09:43.263Z,1.30
2022-10-04T04:12:18.647Z,1.50
2022-10-04T04:14:52.669Z,1.30
2022-10-04T04:17:41.224Z,1.43
2022-10-04T04:20:24.717Z,1.50
2022-10-04T04:23:06.739Z,1.33
2022-10-04T04:25:41.204Z,1.73
2022-10-04T04:28:25.937Z,1.70
2022-10-04T04:31:04.136Z,2.00
2022-10-04T04:33:43.925Z,2.20
2022-10-04T04:36:15.597Z,2.00
2022-10-04T04:38:59.127Z,1.30
2022-10-04T04:41:31.339Z,1.30
2022-10-04T04:43:59.837Z,2.60
2022-10-04T04:46:31.682Z,1.70
2022-10-04T04:49:05.314Z,1.30
2022-10-04T04:51:34.729Z,2.10
2022-10-04T04:54:07.485Z,2.63
2022-10-04T04:56:36.740Z,2.03
2022-10-04T04:59:08.858Z,2.03
2022-10-04T05:01:45.500Z,2.20
2022-10-04T05:04:21.690Z,1.90
2022-10-04T05:07:02.731Z,1.90
2022-10-04T05:09:34.071Z,2.27
2022-10-04T05:12:13.723Z,1.70
2022-10-04T05:14:54.664Z,1.53
2022-10-04T05:17:31.705Z,1.30
2022-10-04T05:20:03.307Z,2.03
2022-10-04T05:22:34.973Z,1.20
2022-10-04T05:25:10.331Z,1.60
2022-10-04T05:27:44.548Z,1.33
2022-10-04T05:30:32.409Z,1.23
2022-10-04T05:33:08.068Z,1.50
2022-10-04T05:36:14.992Z,1.40
2022-10-04T05:38:52.085Z,1.30
2022-10-04T05:41:33.662Z,1.13
2022-10-04T05:44:04.053Z,1.33
2022-10-04T05:46:35.640Z,1.33
2022-10-04T05:49:16.864Z,1.27
2022-10-04T05:51:54.986Z,2.33
2022-10-04T05:54:27.696Z,1.53
2022-10-04T05:57:21.534Z,1.97
2022-10-04T06:00:14.016Z,1.07
2022-10-04T06:03:24.793Z,1.30
2022-10-04T06:05:58.001Z,1.30
2022-10-04T06:08:44.154Z,1.30
2022-10-04T06:11:30.988Z,1.10
2022-10-04T06:14:31.591Z,1.37
2022-10-04T06:17:32.634Z,2.03
2022-10-04T06:20:32.434Z,1.50
2022-10-04T06:23:12.933Z,1.70
2022-10-04T06:25:49.753Z,1.73
2022-10-04T06:28:26.167Z,1.90
2022-10-04T06:31:20.594Z,2.17
2022-10-04T06:34:23.301Z,1.67
2022-10-04T06:37:15.825Z,2.03
2022-10-04T06:40:26.872Z,2.40
2022-10-04T06:43:13.861Z,2.00
2022-10-04T06:46:07.022Z,1.60
2022-10-04T06:49:21.121Z,1.40
2022-10-04T06:52:41.157Z,1.60
2022-10-04T06:55:40.186Z,1.30
2022-10-04T06:58:33.034Z,1.60
2022-10-04T07:01:12.787Z,1.50
2022-10-04T07:03:54.988Z,1.90
2022-10-04T07:06:28.694Z,2.17
2022-10-04T07:09:05.433Z,1.80
2022-10-04T07:11:46.450Z,1.80
2022-10-04T07:14:21.841Z,1.83
2022-10-04T07:16:57.034Z,1.50
2022-10-04T07:19:36.124Z,1.30
2022-10-04T07:22:22.635Z,1.07
2022-10-04T07:25:08.141Z,1.33
2022-10-04T07:28:14.762Z,1.30
2022-10-04T07:30:51.685Z,1.40
2022-10-04T07:33:27.506Z,1.40
2022-10-04T07:36:08.906Z,1.10
2022-10-04T07:38:46.889Z,1.10
2022-10-04T07:41:26.350Z,1.40
2022-10-04T07:44:01.192Z,1.10
2022-10-04T07:46:50.365Z,0.97
2022-10-04T07:49:22.960Z,0.87
2022-10-04T07:52:13.256Z,1.30
2022-10-04T07:54:52.762Z,0.90
2022-10-04T07:57:31.837Z,1.10
2022-10-04T08:00:11.824Z,0.80
2022-10-04T08:02:57.450Z,1.30
2022-10-04T08:05:37.364Z,1.20
2022-10-04T08:08:30.481Z,1.30
2022-10-04T08:11:22.981Z,1.30
2022-10-04T08:14:07.118Z,0.90
2022-10-04T08:16:50.823Z,1.47
2022-10-04T08:19:41.797Z,1.20
2022-10-04T08:22:28.489Z,1.70
2022-10-04T08:25:12.460Z,1.30
2022-10-04T08:28:30.629Z,1.63
2022-10-04T08:31:21.449Z,1.00
2022-10-04T08:34:13.175Z,0.83
2022-10-04T08:37:03.148Z,1.63
2022-10-04T08:39:57.493Z,1.10
2022-10-04T08:43:05.596Z,1.00
2022-10-04T08:46:15.988Z,1.17
2022-10-04T08:49:30.068Z,1.13
2022-10-04T08:52:52.191Z,1.10
2022-10-04T08:55:53.710Z,2.10
2022-10-04T08:59:11.033Z,1.80
2022-10-04T09:02:52.720Z,1.60
2022-10-04T09:05:47.480Z,1.33
2022-10-04T09:09:22.754Z,1.10
2022-10-04T09:12:20.209Z,1.43
2022-10-04T09:15:27.305Z,1.23
2022-10-04T09:18:04.433Z,1.30
2022-10-04T09:20:55.200Z,1.00
2022-10-04T09:24:10.627Z,1.20
2022-10-04T09:26:48.289Z,0.90
2022-10-04T09:29:46.176Z,1.13
2022-10-04T09:33:05.751Z,1.03
2022-10-04T09:36:13.624Z,0.73
2022-10-04T09:39:31.108Z,1.00
2022-10-04T09:42:45.549Z,2.63
2022-10-04T09:45:59.491Z,1.40
2022-10-04T09:48:40.598Z,1.20
2022-10-04T09:51:45.185Z,1.30
2022-10-04T09:54:55.042Z,0.90
2022-10-04T09:57:44.269Z,1.00
2022-10-04T10:00:23.533Z,1.10
2022-10-04T10:03:23.427Z,1.03
2022-10-04T10:06:25.943Z,1.30
2022-10-04T10:09:19.387Z,1.40
2022-10-04T10:12:19.091Z,1.20
2022-10-04T10:15:18.751Z,1.70
2022-10-04T10:17:59.514Z,1.50
2022-10-04T10:21:03.835Z,1.10
2022-10-04T10:24:18.273Z,1.43
2022-10-04T10:27:19.851Z,1.60
2022-10-04T10:30:15.489Z,1.03
2022-10-04T10:33:20.405Z,1.43
2022-10-04T10:36:10.020Z,1.63
2022-10-04T10:39:02.154Z,0.93
2022-10-04T10:42:21.388Z,1.30
2022-10-04T10:45:21.303Z,1.10
2022-10-04T10:48:01.840Z,1.30
2022-10-04T10:51:00.019Z,1.20
2022-10-04T10:54:30.095Z,0.90
2022-10-04T10:57:18.444Z,1.10
2022-10-04T11:00:19.258Z,0.80
2022-10-04T11:03:33.880Z,1.33
2022-10-04T11:06:58.009Z,1.10
2022-10-04T11:09:52.623Z,1.27
2022-10-04T11:13:08.265Z,1.40
2022-10-04T11:15:57.790Z,1.03
2022-10-04T11:19:29.153Z,1.00
2022-10-04T11:22:38.214Z,1.53
2022-10-04T11:25:39.766Z,1.30
2022-10-04T11:28:19.280Z,1.37
2022-10-04T11:31:34.021Z,1.10
2022-10-04T11:35:03.314Z,1.10
2022-10-04T11:37:57.867Z,1.00
2022-10-04T11:40:47.470Z,1.67
2022-10-04T11:43:44.701Z,1.10
2022-10-04T11:46:38.995Z,1.30
2022-10-04T11:50:01.648Z,1.10
2022-10-04T11:53:29.164Z,1.40
2022-10-04T11:56:22.131Z,1.40
2022-10-04T11:59:12.781Z,1.30
2022-10-04T12:02:32.249Z,1.20
2022-10-04T12:05:40.432Z,1.13
2022-10-04T12:08:34.440Z,1.30
2022-10-04T12:12:18.423Z,1.20
2022-10-04T12:15:08.387Z,1.37
2022-10-04T12:18:54.134Z,1.03
2022-10-04T12:21:42.065Z,1.77
2022-10-04T12:24:47.683Z,1.37
2022-10-04T12:28:00.304Z,1.67
2022-10-04T12:30:55.345Z,1.50
2022-10-04T12:33:36.221Z,1.53
2022-10-04T12:36:25.503Z,2.00
2022-10-04T12:39:14.098Z,1.27
2022-10-04T12:41:59.305Z,1.43
2022-10-04T12:44:55.837Z,1.57
2022-10-04T12:48:14.219Z,2.17
2022-10-04T12:51:00.157Z,1.77
2022-10-04T12:53:48.032Z,1.67
2022-10-04T12:56:46.027Z,1.70
2022-10-04T12:59:47.131Z,1.90
2022-10-04T13:03:14.471Z,1.77
2022-10-04T13:06:03.040Z,1.40
2022-10-04T13:09:02.800Z,1.60
2022-10-04T13:12:03.161Z,1.30
2022-10-04T13:15:23.100Z,1.53
2022-10-04T13:18:08.711Z,1.67
2022-10-04T13:20:52.310Z,1.70
2022-10-04T13:23:40.822Z,1.40
2022-10-04T13:26:31.903Z,1.80
2022-10-04T13:29:13.270Z,1.60
2022-10-04T13:31:53.060Z,1.70
2022-10-04T13:34:37.260Z,1.80
2022-10-04T13:37:25.897Z,1.60
2022-10-04T13:40:30.308Z,1.60
2022-10-04T13:43:44.187Z,1.87
2022-10-04T13:46:29.957Z,1.60
2022-10-04T13:49:14.733Z,1.63
2022-10-04T13:52:31.089Z,1.83
2022-10-04T13:55:38.193Z,1.40
2022-10-04T13:58:28.164Z,1.50
2022-10-04T14:01:28.410Z,1.67
2022-10-04T14:04:27.765Z,2.20
2022-10-04T14:07:38.937Z,1.53
2022-10-04T14:10:38.360Z,1.67
2022-10-04T14:13:51.718Z,1.37
2022-10-04T14:17:22.799Z,1.70
2022-10-04T14:20:43.025Z,1.60
2022-10-04T14:23:54.496Z,1.73
2022-10-04T14:27:32.642Z,1.47
2022-10-04T14:30:25.032Z,1.60
2022-10-04T14:33:32.665Z,1.80
2022-10-04T14:36:52.335Z,1.50
2022-10-04T14:40:01.037Z,1.50
2022-10-04T14:42:57.120Z,1.77
2022-10-04T14:45:38.251Z,1.63
2022-10-04T14:48:39.742Z,1.70
2022-10-04T14:51:45.972Z,1.93
2022-10-04T14:54:35.189Z,1.40
2022-10-04T14:57:12.265Z,2.13
2022-10-04T15:00:04.298Z,1.73
2022-10-04T15:03:13.352Z,1.67
2022-10-04T15:06:11.685Z,1.57
2022-10-04T15:09:19.138Z,1.80
2022-10-04T15:15:23.752Z,1.53
2022-10-04T15:18:04.068Z,2.10
2022-10-04T15:20:52.834Z,1.70
2022-10-04T15:23:37.760Z,1.80
2022-10-04T15:26:57.955Z,2.17
2022-10-04T15:29:36.573Z,1.80
2022-10-04T15:32:24.191Z,1.83
2022-10-04T15:35:15.960Z,1.90
2022-10-04T15:37:56.638Z,1.63
2022-10-04T15:40:43.003Z,1.80
2022-10-04T15:43:26.021Z,1.90
2022-10-04T15:46:24.978Z,1.87
2022-10-04T15:49:22.494Z,1.87
2022-10-04T15:52:36.595Z,1.50
2022-10-04T15:55:23.182Z,1.90
2022-10-04T15:58:40.416Z,1.97
2022-10-04T16:01:55.125Z,1.67
2022-10-04T16:04:42.884Z,1.83
2022-10-04T16:08:01.432Z,2.00
2022-10-04T16:10:52.362Z,2.10
2022-10-04T16:13:48.979Z,1.90
2022-10-04T16:17:03.962Z,2.40
2022-10-04T16:19:59.191Z,1.97
2022-10-04T16:22:31.766Z,2.70
2022-10-04T16:25:36.944Z,2.33
2022-10-04T16:28:19.631Z,1.93
2022-10-04T16:31:24.681Z,2.40
2022-10-04T16:34:04.607Z,2.00
2022-10-04T16:36:52.341Z,2.43
2022-10-04T16:39:54.970Z,2.20
2022-10-04T16:42:31.854Z,1.90
2022-10-04T16:45:33.836Z,1.97
2022-10-04T16:48:16.583Z,3.40
2022-10-04T16:51:22.213Z,3.20
2022-10-04T16:54:00.434Z,3.50
2022-10-04T16:56:32.758Z,3.17
2022-10-04T16:59:04.004Z,3.23
2022-10-04T17:02:34.465Z,2.30
2022-10-04T17:05:33.315Z,2.80
2022-10-04T17:08:22.602Z,2.47
2022-10-04T17:11:36.586Z,2.43
2022-10-04T17:14:33.665Z,2.20
2022-10-04T17:17:12.324Z,2.87
2022-10-04T17:19:52.754Z,2.70
2022-10-04T17:22:39.999Z,2.50
2022-10-04T17:25:30.083Z,2.80
2022-10-04T17:28:17.944Z,2.63
2022-10-04T17:30:55.534Z,2.67
2022-10-04T17:33:39.009Z,2.70
2022-10-04T17:36:43.843Z,3.23
2022-10-04T17:39:45.548Z,3.03
2022-10-04T17:42:27.765Z,2.90
2022-10-04T17:45:53.511Z,3.17
2022-10-04T17:48:45.487Z,3.07
2022-10-04T17:51:51.981Z,3.50
2022-10-04T17:54:45.519Z,4.33
2022-10-04T17:57:25.303Z,3.07
2022-10-04T18:00:09.112Z,3.80
2022-10-04T18:03:19.716Z,3.73
2022-10-04T18:05:56.526Z,3.17
2022-10-04T18:08:44.485Z,2.60
2022-10-04T18:11:24.276Z,2.93
2022-10-04T18:14:03.291Z,2.70
2022-10-04T18:16:44.229Z,2.90
2022-10-04T18:19:39.832Z,2.00
2022-10-04T18:22:15.490Z,2.40
2022-10-04T18:24:45.671Z,2.57
2022-10-04T18:27:22.037Z,2.27
2022-10-04T18:30:14.194Z,2.33
2022-10-04T18:32:48.583Z,2.00
2022-10-04T18:35:27.643Z,2.10
2022-10-04T18:37:59.807Z,2.37
2022-10-04T18:40:34.243Z,3.10
2022-10-04T18:43:02.805Z,2.60
2022-10-04T18:45:37.220Z,2.53
2022-10-04T18:48:18.223Z,2.47
2022-10-04T18:50:48.330Z,2.23
2022-10-04T18:53:47.104Z,2.90
2022-10-04T18:56:15.519Z,2.60
2022-10-04T18:59:25.997Z,2.87
2022-10-04T19:02:12.243Z,2.40
2022-10-04T19:04:56.038Z,2.83
2022-10-04T19:07:39.308Z,2.50
2022-10-04T19:10:25.909Z,2.10
2022-10-04T19:13:21.419Z,2.73
2022-10-04T19:16:13.453Z,2.70
2022-10-04T19:18:59.096Z,2.20
2022-10-04T19:21:40.382Z,2.57
2022-10-04T19:24:41.910Z,2.80
2022-10-04T19:27:24.918Z,2.33
2022-10-04T19:30:14.967Z,2.53
2022-10-04T19:33:04.610Z,2.50
2022-10-04T19:36:00.363Z,2.80
2022-10-04T19:38:56.381Z,2.13
2022-10-04T19:41:42.278Z,2.13
2022-10-04T19:44:40.527Z,2.70
2022-10-04T19:47:29.029Z,2.40
2022-10-04T19:50:04.773Z,2.50
2022-10-04T19:52:44.843Z,2.80
2022-10-04T19:55:32.813Z,2.53
2022-10-04T19:58:18.481Z,2.53
2022-10-04T20:00:46.936Z,2.70
2022-10-04T20:03:15.796Z,2.57
2022-10-04T20:05:47.229Z,2.27
2022-10-04T20:09:00.738Z,2.70
2022-10-04T20:11:49.580Z,2.53
2022-10-04T20:15:09.140Z,2.60
2022-10-04T20:17:37.766Z,2.30
2022-10-04T20:20:06.483Z,2.60
2022-10-04T20:22:58.914Z,2.27
2022-10-04T20:26:09.236Z,2.17
2022-10-04T20:28:43.710Z,2.47
2022-10-04T20:31:47.291Z,2.40
2022-10-04T20:34:35.564Z,2.53
2022-10-04T20:37:05.556Z,2.27
2022-10-04T20:40:01.140Z,2.83
2022-10-04T20:42:34.916Z,2.40
2022-10-04T20:45:22.941Z,2.37
2022-10-04T20:47:57.402Z,2.00
2022-10-04T20:50:49.475Z,1.90
2022-10-04T20:53:22.571Z,2.43
2022-10-04T20:56:02.966Z,2.27
2022-10-04T20:58:35.899Z,2.50
2022-10-04T21:01:42.264Z,2.13
2022-10-04T21:04:15.228Z,2.63
2022-10-04T21:06:53.360Z,2.23
2022-10-04T21:09:22.745Z,2.23
2022-10-04T21:11:53.328Z,2.33
2022-10-04T21:14:26.040Z,2.47
2022-10-04T21:17:01.467Z,2.60
2022-10-04T21:19:48.612Z,2.10
2022-10-04T21:22:53.354Z,2.27
2022-10-04T21:25:33.417Z,2.53
2022-10-04T21:28:38.335Z,2.37
2022-10-04T21:31:08.183Z,2.47
2022-10-04T21:33:37.729Z,2.23
2022-10-04T21:36:07.451Z,2.20
2022-10-04T21:38:36.688Z,2.20
2022-10-04T21:41:05.204Z,2.07
2022-10-04T21:43:34.116Z,2.40
2022-10-04T21:46:02.567Z,2.30
2022-10-04T21:48:32.323Z,2.30
2022-10-04T21:51:00.691Z,1.90
2022-10-04T21:53:29.472Z,2.47
2022-10-04T21:55:57.839Z,2.27
2022-10-04T21:58:26.229Z,2.67
2022-10-04T22:00:54.657Z,2.40
2022-10-04T22:03:23.066Z,2.00
2022-10-04T22:05:52.784Z,2.20
2022-10-04T22:08:21.185Z,2.40
2022-10-04T22:10:51.379Z,2.00
2022-10-04T22:13:22.662Z,2.20
2022-10-04T22:15:51.060Z,2.10
2022-10-04T22:18:19.662Z,2.43
2022-10-04T22:20:48.065Z,2.10
2022-10-04T22:23:21.978Z,1.80
2022-10-04T22:25:51.591Z,2.20
2022-10-04T22:28:26.162Z,1.87
2022-10-04T22:30:55.802Z,2.03
2022-10-04T22:33:36.126Z,4.37
2022-10-04T22:36:16.977Z,2.17
2022-10-04T22:38:57.312Z,2.03
2022-10-04T22:41:31.864Z,2.27
2022-10-04T22:44:13.222Z,2.57
2022-10-04T22:46:45.614Z,2.10
2022-10-04T22:49:17.687Z,2.17
2022-10-04T22:51:49.965Z,2.20
2022-10-04T22:54:22.743Z,2.57
2022-10-04T22:56:53.161Z,2.10
2022-10-04T22:59:26.722Z,2.07
2022-10-04T23:01:55.180Z,1.90
2022-10-04T23:04:26.620Z,2.67
2022-10-04T23:06:55.076Z,2.20
2022-10-04T23:09:24.888Z,2.27
2022-10-04T23:11:53.287Z,2.10
2022-10-04T23:14:22.230Z,2.13
2022-10-04T23:16:51.109Z,2.13
2022-10-04T23:19:21.051Z,2.00
2022-10-04T23:21:51.008Z,2.17
2022-10-04T23:24:22.629Z,2.07
2022-10-04T23:26:59.120Z,1.90
2022-10-04T23:29:32.828Z,1.90
2022-10-04T23:32:11.443Z,2.00
2022-10-04T23:34:43.293Z,2.07
2022-10-04T23:37:18.525Z,2.07
2022-10-04T23:39:47.415Z,1.77
2022-10-04T23:42:21.786Z,2.30
2022-10-04T23:44:52.705Z,2.40
2022-10-04T23:47:23.128Z,1.87
2022-10-04T23:49:54.378Z,2.10
2022-10-04T23:52:27.071Z,2.30
2022-10-04T23:54:56.099Z,2.13
2022-10-04T23:57:29.213Z,2.50
